Time;durP1;ratioP1;P1;durP2;ratioP2;P2;SDS_P1;SDS_P2;PMS_P1;PMS_P2;Temp;Humidity;BMP_temperature;BMP_pressure;BME280_temperature;BME280_humidity;BME280_pressure;Samples;Min_cycle;Max_cycle;Signal;HPM_P1;HPM_P2
2022/06/27 00:02:03;;;;;;;;;25.67;25.67;29.60;48.30;;;;;;5096538;28;8779;-71
2022/06/27 00:04:29;;;;;;;;;22.00;22.00;29.40;48.00;;;;;;5096286;28;8770;-70
2022/06/27 00:06:55;;;;;;;;;27.33;27.33;29.40;48.10;;;;;;5096621;28;8763;-70
2022/06/27 00:09:21;;;;;;;;;28.00;28.00;29.40;48.20;;;;;;5096751;28;8832;-71
2022/06/27 00:11:46;;;;;;;;;27.67;27.00;29.40;48.20;;;;;;5096386;28;8768;-70
2022/06/27 00:14:12;;;;;;;;;24.67;24.67;29.40;48.40;;;;;;5096581;28;8779;-71
2022/06/27 00:16:38;;;;;;;;;30.00;29.00;29.40;48.40;;;;;;5096259;28;9476;-71
2022/06/27 00:19:04;;;;;;;;;29.33;29.00;29.30;48.60;;;;;;5078122;28;8796;-71
2022/06/27 00:21:30;;;;;;;;;28.33;26.67;29.30;48.60;;;;;;5096158;28;8805;-71
2022/06/27 00:23:56;;;;;;;;;29.67;27.33;29.30;48.50;;;;;;5096170;28;8780;-71
2022/06/27 00:26:22;;;;;;;;;25.67;24.67;29.20;48.80;;;;;;5096096;28;8791;-71
2022/06/27 00:28:47;;;;;;;;;30.67;30.00;29.20;48.90;;;;;;5096098;28;8782;-71
2022/06/27 00:31:13;;;;;;;;;30.33;28.33;29.20;48.90;;;;;;5096223;28;8752;-72
2022/06/27 00:33:39;;;;;;;;;28.00;28.00;29.10;49.00;;;;;;5095904;28;8740;-71
2022/06/27 00:36:05;;;;;;;;;27.67;27.00;29.10;48.90;;;;;;5077920;28;8804;-71
2022/06/27 00:38:31;;;;;;;;;32.00;30.00;29.00;49.30;;;;;;5096132;28;8807;-71
2022/06/27 00:40:57;;;;;;;;;28.67;28.67;29.00;49.10;;;;;;5095339;28;8756;-70
2022/06/27 00:43:22;;;;;;;;;28.33;28.33;29.10;49.10;;;;;;5088869;28;8767;-71
2022/06/27 00:45:48;;;;;;;;;25.33;25.33;29.10;48.90;;;;;;5075644;28;8774;-71
2022/06/27 00:48:14;;;;;;;;;27.00;27.00;29.10;48.70;;;;;;5075603;28;8766;-71
2022/06/27 00:50:40;;;;;;;;;26.67;26.33;29.10;49.00;;;;;;5075555;28;8778;-70
2022/06/27 00:53:07;;;;;;;;;27.00;27.00;29.10;48.90;;;;;;5074967;28;8765;-71
2022/06/27 00:55:33;;;;;;;;;26.00;26.00;29.00;48.60;;;;;;5075467;28;8912;-71
2022/06/27 00:58:00;;;;;;;;;27.33;24.33;29.00;48.70;;;;;;5075205;28;9598;-70
2022/06/27 01:00:26;;;;;;;;;31.00;30.00;29.00;49.50;;;;;;5075136;28;8778;-71
2022/06/27 01:02:52;;;;;;;;;29.00;29.00;29.00;49.50;;;;;;5075159;28;8780;-71
2022/06/27 01:05:18;;;;;;;;;28.33;27.33;29.00;49.50;;;;;;5075045;28;8816;-71
2022/06/27 01:07:44;;;;;;;;;24.00;24.00;29.10;49.60;;;;;;5075103;28;8794;-71
2022/06/27 01:10:10;;;;;;;;;37.67;32.67;29.00;49.50;;;;;;5074956;28;8816;-71
2022/06/27 01:12:40;;;;;;;;;25.33;25.33;28.90;49.20;;;;;;5057258;28;8792;-71
2022/06/27 01:15:06;;;;;;;;;29.67;28.33;28.80;49.40;;;;;;5075068;28;8769;-70
2022/06/27 01:17:34;;;;;;;;;27.00;27.00;28.80;49.40;;;;;;5075362;28;8770;-71
2022/06/27 01:20:00;;;;;;;;;28.33;28.00;28.70;49.60;;;;;;5074651;28;8813;-71
2022/06/27 01:22:26;;;;;;;;;27.33;26.33;28.70;49.40;;;;;;5074786;28;8831;-71
2022/06/27 01:24:52;;;;;;;;;27.00;26.33;28.70;49.50;;;;;;5074618;28;8859;-71
2022/06/27 01:27:18;;;;;;;;;29.67;28.00;28.70;49.40;;;;;;5074933;28;8762;-71
2022/06/27 01:29:43;;;;;;;;;26.33;26.33;28.70;49.60;;;;;;5074686;28;8770;-71
2022/06/27 01:32:09;;;;;;;;;30.00;30.00;28.60;49.70;;;;;;5074126;28;8778;-71
2022/06/27 01:34:35;;;;;;;;;25.00;24.00;28.70;49.70;;;;;;5084613;28;8814;-71
2022/06/27 01:37:01;;;;;;;;;29.67;29.67;28.70;49.30;;;;;;5092866;28;8807;-71
2022/06/27 01:39:28;;;;;;;;;27.00;27.00;28.70;49.30;;;;;;5074591;28;8762;-71
2022/06/27 01:41:56;;;;;;;;;28.00;28.00;28.70;49.20;;;;;;5074757;28;8869;-71
2022/06/27 01:44:24;;;;;;;;;26.67;26.67;28.70;49.30;;;;;;5079149;28;8770;-71
2022/06/27 01:47:00;;;;;;;;;30.33;29.67;28.50;49.40;;;;;;5094304;28;8829;-71
2022/06/27 01:49:28;;;;;;;;;26.00;26.00;28.60;50.10;;;;;;5093726;28;9401;-72
2022/06/27 01:51:55;;;;;;;;;29.00;29.00;28.60;50.40;;;;;;5074555;28;8774;-71
2022/06/27 01:54:22;;;;;;;;;32.33;30.33;28.50;50.40;;;;;;5090783;28;8862;-71
2022/06/27 01:56:49;;;;;;;;;29.00;29.00;28.20;51.00;;;;;;5094729;28;8801;-71
2022/06/27 01:59:17;;;;;;;;;34.00;31.67;28.30;51.10;;;;;;5093486;28;8782;-70
2022/06/27 02:01:44;;;;;;;;;32.67;30.67;28.30;50.70;;;;;;5094501;28;8778;-71
2022/06/27 02:04:12;;;;;;;;;30.00;29.67;28.40;50.50;;;;;;5094433;28;8774;-71
2022/06/27 02:06:39;;;;;;;;;34.00;32.00;28.40;50.30;;;;;;5094093;28;8777;-71
2022/06/27 02:09:09;;;;;;;;;29.00;29.00;28.40;50.50;;;;;;5094825;28;8828;-71
2022/06/27 02:11:36;;;;;;;;;31.33;30.33;28.40;50.60;;;;;;5094922;28;8950;-71
2022/06/27 02:14:02;;;;;;;;;27.67;27.67;28.40;50.60;;;;;;5094643;28;8758;-71
2022/06/27 02:16:28;;;;;;;;;30.00;30.00;28.30;50.80;;;;;;5094253;28;9398;-72
2022/06/27 02:18:54;;;;;;;;;29.67;29.00;28.20;50.90;;;;;;5094174;28;8785;-71
2022/06/27 02:21:22;;;;;;;;;28.00;27.33;28.20;51.10;;;;;;5094327;28;8785;-71
2022/06/27 02:23:49;;;;;;;;;34.67;32.00;28.20;51.00;;;;;;5094390;28;8911;-71
2022/06/27 02:26:16;;;;;;;;;30.00;30.00;28.20;51.00;;;;;;5094309;28;8789;-71
2022/06/27 02:28:43;;;;;;;;;27.33;27.00;28.30;50.90;;;;;;5086560;28;8915;-71
2022/06/27 02:31:10;;;;;;;;;32.33;31.33;28.30;50.70;;;;;;5091417;28;8776;-70
2022/06/27 02:33:44;;;;;;;;;29.33;29.33;28.20;50.60;;;;;;5094253;28;8762;-70
2022/06/27 02:36:19;;;;;;;;;35.33;32.67;28.20;50.80;;;;;;5094221;28;8813;-70
2022/06/27 02:38:50;;;;;;;;;29.33;27.67;28.20;50.90;;;;;;5094498;28;8807;-71
2022/06/27 02:41:18;;;;;;;;;34.00;31.67;28.20;51.10;;;;;;5094275;28;8779;-71
2022/06/27 02:43:47;;;;;;;;;27.00;27.00;28.20;51.10;;;;;;5094371;28;8752;-70
2022/06/27 02:46:13;;;;;;;;;31.00;30.33;28.10;51.30;;;;;;5094141;28;8760;-70
2022/06/27 02:48:40;;;;;;;;;32.67;31.00;28.10;51.20;;;;;;5092097;28;8791;-71
2022/06/27 02:51:13;;;;;;;;;31.67;30.00;28.10;51.40;;;;;;5073454;28;8766;-70
2022/06/27 02:54:07;;;;;;;;;33.00;32.00;28.10;51.30;;;;;;5074111;28;8781;-70
2022/06/27 02:56:38;;;;;;;;;34.33;32.33;28.10;51.20;;;;;;5073721;28;8831;-71
2022/06/27 02:59:13;;;;;;;;;29.33;28.33;28.10;51.20;;;;;;5073801;28;8841;-71
2022/06/27 03:01:42;;;;;;;;;34.33;32.33;28.10;51.20;;;;;;5073811;28;8765;-71
2022/06/27 03:04:08;;;;;;;;;33.67;32.00;28.10;51.50;;;;;;5073714;28;8868;-71
2022/06/27 03:06:35;;;;;;;;;31.67;30.33;28.00;51.40;;;;;;5073677;28;8766;-71
2022/06/27 03:09:01;;;;;;;;;36.33;33.67;28.00;51.80;;;;;;5074286;28;8912;-71
2022/06/27 03:11:27;;;;;;;;;34.33;32.67;28.00;51.70;;;;;;5073649;28;8908;-71
2022/06/27 03:13:54;;;;;;;;;38.67;35.00;28.00;51.70;;;;;;5073630;28;8781;-71
2022/06/27 03:16:22;;;;;;;;;37.67;33.33;27.90;51.60;;;;;;5074516;28;8833;-71
2022/06/27 03:18:49;;;;;;;;;38.67;34.00;28.00;51.70;;;;;;5077198;28;8774;-71
2022/06/27 03:21:20;;;;;;;;;36.67;32.33;28.10;51.50;;;;;;5077069;28;8774;-71
2022/06/27 03:23:47;;;;;;;;;32.00;30.67;28.00;51.40;;;;;;5077184;28;8802;-71
2022/06/27 03:26:13;;;;;;;;;36.00;33.00;28.00;51.50;;;;;;5077084;28;8762;-70
2022/06/27 03:28:39;;;;;;;;;31.67;30.67;28.00;51.50;;;;;;5076958;28;8778;-71
2022/06/27 03:31:04;;;;;;;;;34.00;33.00;28.00;51.60;;;;;;5076910;28;8792;-71
2022/06/27 03:33:30;;;;;;;;;31.00;30.00;28.00;51.60;;;;;;5076894;28;8770;-70
2022/06/27 03:35:56;;;;;;;;;33.00;31.00;27.80;51.80;;;;;;5076721;28;8820;-71
2022/06/27 03:38:22;;;;;;;;;34.67;33.00;27.80;51.90;;;;;;5078268;28;8798;-71
2022/06/27 03:40:47;;;;;;;;;33.67;30.33;27.80;51.90;;;;;;5085654;28;8790;-71
2022/06/27 03:43:13;;;;;;;;;34.00;30.33;27.90;51.60;;;;;;5076869;28;8786;-71
2022/06/27 03:45:39;;;;;;;;;34.00;32.33;27.90;51.40;;;;;;5076683;28;8758;-72
2022/06/27 03:48:05;;;;;;;;;37.00;33.00;27.90;51.30;;;;;;5076559;28;8766;-71
2022/06/27 03:50:31;;;;;;;;;32.33;30.00;27.90;51.50;;;;;;5076716;28;8851;-70
2022/06/27 03:52:57;;;;;;;;;31.67;30.33;27.90;51.60;;;;;;5076456;28;9408;-71
2022/06/27 03:55:24;;;;;;;;;34.33;31.00;27.80;51.40;;;;;;5076352;28;8831;-71
2022/06/27 03:57:52;;;;;;;;;33.67;32.33;27.90;51.40;;;;;;5076631;28;8766;-71
2022/06/27 04:00:20;;;;;;;;;32.67;31.67;27.90;51.40;;;;;;5076287;28;8792;-71
2022/06/27 04:02:45;;;;;;;;;32.67;31.67;27.80;51.60;;;;;;5076277;28;8784;-71
2022/06/27 04:05:11;;;;;;;;;34.00;32.33;27.70;51.80;;;;;;5076490;28;8774;-71
2022/06/27 04:07:38;;;;;;;;;36.67;34.00;27.70;51.70;;;;;;5076118;28;8904;-71
2022/06/27 04:10:06;;;;;;;;;39.67;35.00;27.90;51.40;;;;;;5076172;28;8778;-70
2022/06/27 04:12:32;;;;;;;;;34.67;32.33;27.80;51.10;;;;;;5076029;28;8781;-71
2022/06/27 04:14:58;;;;;;;;;37.67;34.00;27.90;50.90;;;;;;5076129;28;8769;-71
2022/06/27 04:17:24;;;;;;;;;37.67;34.33;27.90;50.60;;;;;;5076004;28;8777;-71
2022/06/27 04:19:50;;;;;;;;;43.33;36.33;27.90;50.90;;;;;;5075983;28;8819;-71
2022/06/27 04:22:16;;;;;;;;;40.67;36.00;28.00;50.50;;;;;;5091604;28;8770;-71
2022/06/27 04:24:41;;;;;;;;;39.67;35.00;27.90;50.70;;;;;;5075859;28;9414;-72
2022/06/27 04:27:08;;;;;;;;;42.00;36.67;28.00;50.40;;;;;;5075918;28;8758;-70
2022/06/27 04:29:34;;;;;;;;;35.67;33.33;28.10;50.20;;;;;;5075016;28;8753;-70
2022/06/27 04:32:00;;;;;;;;;42.33;36.33;28.10;50.30;;;;;;5075703;28;8774;-71
2022/06/27 04:34:27;;;;;;;;;40.00;35.33;27.90;50.40;;;;;;5075972;28;8766;-71
2022/06/27 04:36:53;;;;;;;;;37.33;33.33;28.00;50.90;;;;;;5075475;28;8793;-71
2022/06/27 04:39:20;;;;;;;;;35.67;32.33;28.10;51.10;;;;;;5082247;28;8764;-70
2022/06/27 04:41:47;;;;;;;;;40.67;34.67;28.20;51.30;;;;;;5088578;28;8778;-69
2022/06/27 04:44:13;;;;;;;;;34.33;32.33;28.20;50.80;;;;;;5095797;28;8844;-69
2022/06/27 04:46:41;;;;;;;;;38.33;34.33;28.20;50.60;;;;;;5095747;28;8768;-70
2022/06/27 04:49:08;;;;;;;;;39.33;35.00;28.10;51.00;;;;;;5095920;28;8926;-71
2022/06/27 04:51:34;;;;;;;;;35.00;32.33;28.20;51.00;;;;;;5087767;28;8884;-70
2022/06/27 04:54:00;;;;;;;;;27.00;27.00;28.30;51.30;;;;;;5082356;28;8794;-71
2022/06/27 04:56:26;;;;;;;;;32.67;31.67;28.20;51.00;;;;;;5075394;28;9555;-71
2022/06/27 04:58:53;;;;;;;;;35.33;33.00;28.30;51.00;;;;;;5075383;28;8935;-70
2022/06/27 05:01:19;;;;;;;;;46.33;38.33;28.40;51.20;;;;;;5075110;28;8750;-70
2022/06/27 05:03:45;;;;;;;;;41.67;36.67;28.40;51.10;;;;;;5075042;28;8754;-70
2022/06/27 05:06:10;;;;;;;;;46.00;39.67;28.30;51.50;;;;;;5075235;28;8786;-70
2022/06/27 05:08:39;;;;;;;;;38.67;34.33;28.40;51.60;;;;;;5075159;28;8852;-70
2022/06/27 05:11:05;;;;;;;;;28.33;28.33;28.40;51.80;;;;;;5075226;28;8881;-70
2022/06/27 05:13:31;;;;;;;;;31.67;30.00;28.30;52.10;;;;;;5078675;28;8897;-70
2022/06/27 05:15:58;;;;;;;;;32.67;29.00;28.40;52.30;;;;;;5081417;28;8802;-71
2022/06/27 05:18:24;;;;;;;;;32.00;29.67;28.20;52.70;;;;;;5074741;28;8774;-70
2022/06/27 05:20:50;;;;;;;;;35.00;30.00;28.00;53.10;;;;;;5075066;28;8858;-71
2022/06/27 05:23:16;;;;;;;;;29.33;29.33;27.90;53.50;;;;;;5075021;28;8758;-70
2022/06/27 05:25:42;;;;;;;;;35.00;32.33;28.00;53.30;;;;;;5074750;28;8773;-70
2022/06/27 05:28:08;;;;;;;;;32.67;29.33;28.00;53.30;;;;;;5074886;28;8766;-70
2022/06/27 05:30:34;;;;;;;;;32.33;31.33;27.90;53.20;;;;;;5074721;28;8779;-70
2022/06/27 05:33:00;;;;;;;;;30.33;29.67;28.20;52.70;;;;;;5074504;28;8897;-70
2022/06/27 05:35:27;;;;;;;;;30.67;29.67;28.50;52.20;;;;;;5074340;28;8796;-73
2022/06/27 05:37:56;;;;;;;;;30.33;30.00;28.70;51.80;;;;;;5074678;28;8797;-72
2022/06/27 05:40:23;;;;;;;;;32.00;30.33;28.80;51.40;;;;;;5074260;28;8782;-72
2022/06/27 05:42:49;;;;;;;;;33.00;30.00;28.90;51.00;;;;;;5074392;28;8839;-69
2022/06/27 05:45:16;;;;;;;;;35.67;33.00;28.90;51.00;;;;;;5074352;28;8774;-69
2022/06/27 05:47:43;;;;;;;;;35.00;32.00;29.00;50.80;;;;;;5074357;28;8766;-70
2022/06/27 05:50:10;;;;;;;;;33.00;32.00;29.10;50.60;;;;;;5074326;28;8746;-69
2022/06/27 05:52:39;;;;;;;;;33.00;31.00;29.20;50.10;;;;;;5074335;28;8750;-70
2022/06/27 05:55:06;;;;;;;;;35.67;33.33;29.10;50.20;;;;;;5074323;28;8770;-69
2022/06/27 05:57:32;;;;;;;;;33.00;30.67;29.20;50.10;;;;;;5074153;28;8814;-70
2022/06/27 05:59:58;;;;;;;;;33.33;31.67;29.30;50.10;;;;;;5074338;28;8765;-70
2022/06/27 06:02:27;;;;;;;;;35.33;33.00;29.30;50.00;;;;;;5074162;28;8761;-70
2022/06/27 06:04:54;;;;;;;;;34.67;32.33;29.40;49.50;;;;;;5074123;28;8778;-70
2022/06/27 06:07:22;;;;;;;;;37.67;33.33;29.50;49.00;;;;;;5074048;28;9416;-71
2022/06/27 06:09:49;;;;;;;;;33.33;32.00;29.60;49.10;;;;;;5074215;28;8762;-70
2022/06/27 06:12:17;;;;;;;;;31.67;30.33;29.60;49.20;;;;;;5074241;28;8777;-71
2022/06/27 06:14:43;;;;;;;;;31.00;30.33;29.60;48.90;;;;;;5074128;28;8851;-70
2022/06/27 06:17:09;;;;;;;;;31.67;30.00;29.70;48.70;;;;;;5073723;28;8817;-71
2022/06/27 06:19:35;;;;;;;;;32.67;30.00;29.80;48.60;;;;;;5073925;28;8814;-70
2022/06/27 06:22:01;;;;;;;;;37.00;33.67;29.90;48.60;;;;;;5073955;28;8804;-70
2022/06/27 06:24:27;;;;;;;;;36.00;33.00;29.90;48.80;;;;;;5073958;28;8782;-71
2022/06/27 06:26:56;;;;;;;;;33.33;32.00;30.00;48.70;;;;;;5074027;28;8766;-72
2022/06/27 06:29:22;;;;;;;;;33.33;32.00;29.90;48.50;;;;;;5074011;28;8850;-74
2022/06/27 06:31:49;;;;;;;;;32.33;31.33;29.80;49.20;;;;;;5056145;28;8912;-72
2022/06/27 06:34:16;;;;;;;;;33.67;32.00;30.00;48.70;;;;;;5074020;28;9538;-72
2022/06/27 06:36:44;;;;;;;;;34.00;30.33;29.70;49.20;;;;;;5073893;28;8840;-71
2022/06/27 06:39:11;;;;;;;;;29.33;29.33;29.60;49.30;;;;;;5074171;28;8948;-72
2022/06/27 06:41:39;;;;;;;;;44.00;38.33;29.80;49.30;;;;;;5073803;28;8766;-72
2022/06/27 06:44:05;;;;;;;;;40.67;35.67;29.80;50.10;;;;;;5073978;28;8776;-72
2022/06/27 06:46:34;;;;;;;;;38.00;35.00;30.00;50.30;;;;;;5073994;28;8770;-72
2022/06/27 06:49:06;;;;;;;;;38.00;35.00;30.10;49.80;;;;;;5073736;28;8787;-71
2022/06/27 06:51:36;;;;;;;;;36.33;33.00;30.30;49.50;;;;;;5057271;28;8778;-71
2022/06/27 06:54:07;;;;;;;;;38.00;33.00;30.40;50.00;;;;;;5077585;28;8766;-71
2022/06/27 06:56:33;;;;;;;;;42.33;37.33;30.50;49.70;;;;;;5087702;28;8861;-70
2022/06/27 06:59:01;;;;;;;;;44.33;34.67;30.20;50.10;;;;;;5077500;28;8746;-71
2022/06/27 07:01:28;;;;;;;;;43.67;37.33;30.40;49.30;;;;;;5077602;28;8825;-71
2022/06/27 07:03:55;;;;;;;;;38.67;34.00;30.50;48.80;;;;;;5077208;28;8770;-70
2022/06/27 07:06:31;;;;;;;;;40.00;35.67;30.50;48.80;;;;;;5059213;28;8793;-71
2022/06/27 07:08:59;;;;;;;;;38.67;34.33;30.50;48.30;;;;;;5077603;28;8797;-70
2022/06/27 07:11:28;;;;;;;;;29.00;29.00;30.60;47.90;;;;;;5077472;28;8761;-71
2022/06/27 07:13:55;;;;;;;;;29.67;29.67;30.40;47.90;;;;;;5081954;28;8764;-71
2022/06/27 07:16:22;;;;;;;;;26.00;25.00;30.70;47.50;;;;;;5086290;28;8835;-73
2022/06/27 07:18:48;;;;;;;;;30.33;30.00;30.80;46.90;;;;;;5097119;28;12024;-73
2022/06/27 07:21:19;;;;;;;;;31.00;29.67;30.90;46.50;;;;;;5096876;28;8786;-73
2022/06/27 07:23:47;;;;;;;;;27.00;27.00;30.60;46.30;;;;;;5088245;28;8778;-72
2022/06/27 07:26:14;;;;;;;;;27.33;26.67;30.80;46.30;;;;;;5076865;28;11488;-74
2022/06/27 07:28:41;;;;;;;;;28.00;27.67;30.90;46.00;;;;;;5076908;28;8802;-73
2022/06/27 07:31:12;;;;;;;;;26.33;25.00;31.00;45.50;;;;;;5082665;28;11550;-72
2022/06/27 07:33:43;;;;;;;;;26.00;24.33;31.10;45.00;;;;;;5067772;28;11493;-73
2022/06/27 07:36:14;;;;;;;;;25.00;25.00;31.00;43.40;;;;;;5081302;28;11542;-73
2022/06/27 07:38:47;;;;;;;;;25.00;25.00;30.90;43.60;;;;;;5087922;28;11512;-73
2022/06/27 07:41:15;;;;;;;;;22.33;22.33;31.10;43.20;;;;;;5085596;28;11467;-72
2022/06/27 07:43:42;;;;;;;;;20.00;20.00;31.20;43.20;;;;;;5076243;28;11484;-72
2022/06/27 07:46:08;;;;;;;;;25.33;22.00;31.30;43.20;;;;;;5076727;28;12123;-72
2022/06/27 07:48:34;;;;;;;;;24.00;24.00;31.30;42.00;;;;;;5080284;28;11473;-73
2022/06/27 07:51:00;;;;;;;;;25.67;25.00;31.30;42.20;;;;;;5091674;28;8773;-74
2022/06/27 07:53:27;;;;;;;;;25.00;25.00;31.40;42.20;;;;;;5096605;28;8770;-69
2022/06/27 07:55:54;;;;;;;;;18.00;18.00;31.40;41.70;;;;;;5096544;28;11528;-71
2022/06/27 07:58:26;;;;;;;;;22.00;22.00;31.50;41.70;;;;;;5093989;28;11457;-72
2022/06/27 08:00:52;;;;;;;;;15.25;15.25;31.50;41.50;;;;;;5085500;28;11461;-70
2022/06/27 08:06:14;;;;;;;;;17.50;17.50;31.60;41.70;;;;;;5096381;28;12042;-73
2022/06/27 08:08:43;;;;;;;;;18.75;18.75;31.60;41.40;;;;;;5096583;28;11484;-72
2022/06/27 08:11:15;;;;;;;;;22.00;21.25;31.50;41.00;;;;;;5096104;28;11519;-73
2022/06/27 08:13:43;;;;;;;;;18.25;18.00;31.30;40.80;;;;;;5096118;28;11576;-72
2022/06/27 08:16:14;;;;;;;;;15.25;15.25;31.20;40.30;;;;;;5095934;28;11489;-72
2022/06/27 08:18:42;;;;;;;;;17.50;15.00;31.20;40.90;;;;;;5090964;28;11476;-72
2022/06/27 08:21:08;;;;;;;;;15.25;14.50;31.50;40.80;;;;;;5094368;28;12090;-71
2022/06/27 08:23:36;;;;;;;;;13.75;13.50;31.50;39.70;;;;;;5095738;28;11539;-74
2022/06/27 08:26:06;;;;;;;;;13.00;13.00;31.50;39.80;;;;;;5096218;28;11429;-76
2022/06/27 08:28:36;;;;;;;;;18.50;17.50;31.70;39.70;;;;;;5095846;28;11434;-74
2022/06/27 08:31:07;;;;;;;;;14.50;13.50;31.90;39.70;;;;;;5096070;28;11454;-75
2022/06/27 08:33:33;;;;;;;;;17.00;17.00;31.90;40.00;;;;;;5096129;28;11490;-74
2022/06/27 08:36:01;;;;;;;;;18.25;17.00;31.80;40.30;;;;;;5095803;28;11500;-76
2022/06/27 08:38:28;;;;;;;;;17.75;17.75;31.70;40.10;;;;;;5096025;28;11548;-77
2022/06/27 08:40:55;;;;;;;;;17.00;17.00;31.70;40.10;;;;;;5089169;28;11490;-75
2022/06/27 08:43:23;;;;;;;;;30.00;29.67;31.50;40.70;;;;;;5077513;28;12151;-74
2022/06/27 08:45:51;;;;;;;;;18.50;18.50;31.50;40.90;;;;;;5075340;28;11461;-75
2022/06/27 08:48:17;;;;;;;;;15.75;14.00;31.70;41.00;;;;;;5083827;28;11441;-76
2022/06/27 08:50:45;;;;;;;;;17.00;17.00;31.50;40.60;;;;;;5083628;28;12214;-75
2022/06/27 08:53:12;;;;;;;;;15.00;13.25;31.80;41.40;;;;;;5079741;28;11496;-76
2022/06/27 08:55:44;;;;;;;;;16.75;16.75;32.00;41.80;;;;;;5075033;28;11471;-75
2022/06/27 08:58:11;;;;;;;;;17.00;17.00;32.10;40.80;;;;;;5075066;28;11490;-75
2022/06/27 09:00:40;;;;;;;;;17.50;17.50;32.10;41.40;;;;;;5074792;28;11519;-75
2022/06/27 09:03:10;;;;;;;;;16.75;16.75;32.10;40.90;;;;;;5086079;28;11588;-77
2022/06/27 09:05:36;;;;;;;;;18.25;18.25;32.40;40.00;;;;;;5075026;28;12103;-76
2022/06/27 09:08:05;;;;;;;;;18.00;16.75;32.50;38.80;;;;;;5075027;28;11604;-76
2022/06/27 09:10:35;;;;;;;;;17.50;17.50;32.60;39.30;;;;;;5074859;28;11469;-76
2022/06/27 09:13:08;;;;;;;;;16.50;16.50;32.70;39.20;;;;;;5074784;28;11465;-76
2022/06/27 09:15:55;;;;;;;;;14.75;14.75;32.60;36.70;;;;;;5074212;28;11475;-75
2022/06/27 09:18:27;;;;;;;;;13.00;13.00;32.60;36.70;;;;;;5084371;28;11557;-74
2022/06/27 09:20:58;;;;;;;;;10.75;10.75;32.50;37.60;;;;;;5079675;28;11441;-76
2022/06/27 09:23:40;;;;;;;;;8.25;8.25;32.70;36.90;;;;;;5088589;28;11467;-78
2022/06/27 09:26:09;;;;;;;;;12.75;12.75;32.80;34.20;;;;;;5077012;28;11412;-76
2022/06/27 09:28:50;;;;;;;;;15.50;14.00;32.90;35.10;;;;;;5091535;28;11423;-76
2022/06/27 09:31:28;;;;;;;;;11.00;11.00;32.90;34.90;;;;;;5064094;28;11561;-71
2022/06/27 09:34:12;;;;;;;;;11.00;11.00;32.90;35.80;;;;;;5080830;28;11429;-71
2022/06/27 09:36:42;;;;;;;;;13.50;13.50;32.90;36.30;;;;;;5085602;28;11489;-75
2022/06/27 09:39:24;;;;;;;;;15.25;15.00;32.90;36.50;;;;;;5085427;28;11505;-75
2022/06/27 09:42:03;;;;;;;;;14.25;14.25;32.90;35.60;;;;;;5074425;28;11440;-70
2022/06/27 09:44:35;;;;;;;;;21.75;20.50;33.00;35.10;;;;;;5085389;28;11437;-68
2022/06/27 09:47:21;;;;;;;;;19.75;19.75;33.10;35.50;;;;;;5080862;28;11447;-70
2022/06/27 09:49:52;;;;;;;;;19.25;19.25;33.20;34.10;;;;;;5075988;28;11485;-69
2022/06/27 09:52:26;;;;;;;;;14.25;14.00;33.40;34.80;;;;;;5074206;28;11542;-69
2022/06/27 09:54:54;;;;;;;;;22.25;22.25;33.70;33.40;;;;;;5078230;28;11452;-68
2022/06/27 09:57:21;;;;;;;;;17.00;17.00;33.60;33.70;;;;;;5094196;28;11512;-68
2022/06/27 09:59:50;;;;;;;;;13.00;12.50;33.60;34.40;;;;;;5087674;28;11453;-71
2022/06/27 10:02:19;;;;;;;;;14.50;14.00;33.50;33.70;;;;;;5087057;28;11458;-69
2022/06/27 10:04:47;;;;;;;;;12.00;11.25;33.40;32.90;;;;;;5083138;28;11547;-69
2022/06/27 10:07:15;;;;;;;;;13.75;13.75;33.60;33.70;;;;;;5073934;28;11539;-69
2022/06/27 10:09:42;;;;;;;;;12.75;12.75;33.90;33.50;;;;;;5078709;28;11490;-74
2022/06/27 10:12:36;;;;;;;;;17.25;17.25;34.00;33.10;;;;;;5080471;28;11453;-74
2022/06/27 10:15:10;;;;;;;;;14.50;14.50;33.90;33.20;;;;;;5074320;28;11449;-73
2022/06/27 10:18:00;;;;;;;;;14.00;14.00;34.00;33.40;;;;;;5073856;28;11480;-74
2022/06/27 10:20:33;;;;;;;;;14.00;14.00;33.90;33.30;;;;;;5082544;28;11437;-74
2022/06/27 10:23:13;;;;;;;;;14.75;13.00;33.90;33.20;;;;;;5075602;28;11462;-74
2022/06/27 10:25:41;;;;;;;;;11.75;11.75;34.00;33.70;;;;;;5074160;28;12177;-74
2022/06/27 10:28:12;;;;;;;;;16.00;15.50;34.10;31.90;;;;;;5077801;28;11447;-74
2022/06/27 10:30:53;;;;;;;;;17.00;15.25;34.30;32.90;;;;;;5085487;28;11450;-75
2022/06/27 10:33:21;;;;;;;;;15.25;15.25;34.50;32.60;;;;;;5079500;28;11454;-75
2022/06/27 10:36:02;;;;;;;;;15.50;14.50;34.80;31.60;;;;;;5077859;28;12156;-74
2022/06/27 10:38:42;;;;;;;;;14.00;14.00;34.60;31.40;;;;;;5078439;28;11474;-74
2022/06/27 10:41:21;;;;;;;;;15.00;15.00;34.60;30.40;;;;;;5085922;28;11446;-74
2022/06/27 10:43:56;;;;;;;;;10.75;10.75;34.70;31.00;;;;;;5094714;28;11420;-73
2022/06/27 10:46:22;;;;;;;;;13.00;13.00;34.80;31.90;;;;;;5095240;28;11435;-70
2022/06/27 10:48:54;;;;;;;;;11.75;11.75;34.80;30.40;;;;;;5094916;28;11414;-71
2022/06/27 10:51:28;;;;;;;;;12.50;12.50;34.80;30.00;;;;;;5097577;28;8945;-72
2022/06/27 10:54:06;;;;;;;;;12.75;12.75;34.60;29.70;;;;;;5096329;28;11438;-70
2022/06/27 10:56:58;;;;;;;;;11.50;11.50;34.80;30.20;;;;;;5095337;28;12167;-70
2022/06/27 10:59:25;;;;;;;;;12.25;12.25;34.90;30.00;;;;;;5093092;28;11588;-71
2022/06/27 11:01:52;;;;;;;;;12.75;12.75;34.90;29.80;;;;;;5097523;28;11450;-70
2022/06/27 11:04:29;;;;;;;;;11.50;11.50;35.00;30.30;;;;;;5097477;28;11466;-70
2022/06/27 11:07:01;;;;;;;;;10.25;10.25;35.10;29.80;;;;;;5097579;28;11478;-70
2022/06/27 11:09:37;;;;;;;;;10.00;10.00;35.20;30.00;;;;;;5091712;28;11448;-70
2022/06/27 11:12:05;;;;;;;;;12.50;12.50;35.40;30.20;;;;;;5095289;28;11414;-72
2022/06/27 11:14:41;;;;;;;;;11.75;11.75;35.60;30.00;;;;;;5094720;28;12210;-71
2022/06/27 11:17:25;;;;;;;;;14.75;14.75;35.70;29.20;;;;;;5096978;28;11482;-71
2022/06/27 11:20:11;;;;;;;;;14.00;14.00;35.70;29.60;;;;;;5097187;28;11540;-73
2022/06/27 11:22:40;;;;;;;;;10.75;10.75;35.70;29.40;;;;;;5096197;28;12149;-76
2022/06/27 11:25:07;;;;;;;;;9.75;9.75;35.60;29.00;;;;;;5097087;28;11671;-69
2022/06/27 11:27:45;;;;;;;;;12.00;12.00;35.80;28.90;;;;;;5096946;28;11454;-74
2022/06/27 11:33:09;;;;;;;;;13.00;13.00;35.90;29.30;;;;;;5096588;28;11501;-70
2022/06/27 11:35:35;;;;;;;;;11.75;11.75;36.10;29.10;;;;;;5096732;28;11548;-75
2022/06/27 11:38:05;;;;;;;;;10.00;10.00;36.00;28.50;;;;;;5096044;28;11488;-71
2022/06/27 11:40:31;;;;;;;;;9.25;9.25;35.90;28.90;;;;;;5096776;28;8805;-70
2022/06/27 11:42:56;;;;;;;;;8.00;8.00;36.00;29.00;;;;;;5096928;28;11454;-73
2022/06/27 11:45:22;;;;;;;;;10.25;10.25;36.00;29.00;;;;;;5096749;28;11498;-73
2022/06/27 11:47:48;;;;;;;;;12.50;12.50;36.10;28.80;;;;;;5095771;28;8804;-71
2022/06/27 11:50:17;;;;;;;;;12.25;12.25;36.40;28.70;;;;;;5096589;28;9422;-73
2022/06/27 11:53:03;;;;;;;;;11.50;11.50;36.30;28.20;;;;;;5089943;28;11449;-73
2022/06/27 11:55:30;;;;;;;;;13.75;13.75;36.20;28.70;;;;;;5088618;28;11437;-69
2022/06/27 11:57:58;;;;;;;;;14.50;14.50;36.10;28.80;;;;;;5094339;28;11459;-68
2022/06/27 12:00:25;;;;;;;;;17.00;17.00;36.30;29.10;;;;;;5091529;28;11451;-70
2022/06/27 12:03:00;;;;;;;;;14.75;14.75;36.50;28.90;;;;;;5068860;28;11570;-71
2022/06/27 12:05:27;;;;;;;;;14.50;14.50;36.90;27.80;;;;;;5088836;28;11477;-73
2022/06/27 12:07:55;;;;;;;;;12.50;12.50;37.50;28.40;;;;;;5087554;28;11462;-71
2022/06/27 12:10:41;;;;;;;;;15.00;15.00;37.50;26.60;;;;;;5089455;28;11476;-71
2022/06/27 12:13:12;;;;;;;;;13.75;13.75;37.10;27.60;;;;;;5081824;28;11522;-73
2022/06/27 12:15:39;;;;;;;;;13.00;13.00;37.10;28.40;;;;;;5086084;28;11449;-72
2022/06/27 12:18:06;;;;;;;;;16.00;16.00;36.90;27.10;;;;;;5089668;28;11453;-74
2022/06/27 12:20:34;;;;;;;;;12.50;12.50;37.00;27.50;;;;;;5087562;28;11514;-76
2022/06/27 12:23:01;;;;;;;;;14.75;14.75;37.00;27.30;;;;;;5075848;28;11437;-74
2022/06/27 12:25:28;;;;;;;;;9.00;9.00;36.90;27.90;;;;;;5091072;28;11597;-75
2022/06/27 12:27:53;;;;;;;;;11.75;11.75;36.70;28.10;;;;;;5090318;28;11395;-71
2022/06/27 12:30:19;;;;;;;;;11.75;11.75;36.50;27.20;;;;;;5089223;28;11541;-72
2022/06/27 12:32:45;;;;;;;;;15.75;15.75;36.50;27.80;;;;;;5090243;28;9088;-72
2022/06/27 12:35:12;;;;;;;;;17.50;17.50;36.60;27.90;;;;;;5088708;28;11548;-75
2022/06/27 12:37:38;;;;;;;;;15.75;15.75;36.60;27.50;;;;;;5087588;28;8798;-74
2022/06/27 12:40:07;;;;;;;;;17.25;17.25;36.90;28.10;;;;;;5091625;28;11443;-74
2022/06/27 12:42:33;;;;;;;;;15.75;15.75;37.30;27.50;;;;;;5092819;28;11430;-74
2022/06/27 12:44:59;;;;;;;;;14.00;14.00;37.10;27.30;;;;;;5087777;28;11545;-77
2022/06/27 12:47:26;;;;;;;;;15.00;15.00;37.00;27.50;;;;;;5094676;28;11424;-72